Time,TemperatureF,DewpointF,PressureIn,WindDirection,WindDirectionDegrees,WindSpeedMPH,WindSpeedGustMPH,Humidity,HourlyPrecipIn,Conditions,Clouds,dailyrainin,SolarRadiationWatts/m^2,SoftwareType,DateUTC
2013-03-19 00:03:00,69.0,67.0,-100.00,ESE,112,3.0,-999.0,93,0.00,,,-99.99,0.700000,,2013-03-19 04:03:00,
2013-03-19 00:13:00,69.0,67.0,-100.00,South,179,2.0,-999.0,93,0.03,,,-99.99,0.700000,,2013-03-19 04:13:00,
2013-03-19 00:23:00,69.0,67.0,-100.00,South,179,2.0,-999.0,93,0.03,,,-99.99,0.700000,,2013-03-19 04:23:00,
2013-03-19 00:43:00,69.0,67.0,-100.00,NNE,25,3.0,-999.0,93,0.00,,,-99.99,0.700000,,2013-03-19 04:43:00,
2013-03-19 00:53:00,69.0,67.0,-100.00,NNE,25,3.0,-999.0,93,0.00,,,-99.99,0.700000,,2013-03-19 04:53:00,
2013-03-19 01:02:00,69.0,67.0,-100.00,NW,326,1.0,-999.0,93,0.00,,,-99.99,0.700000,,2013-03-19 05:02:00,
2013-03-19 01:12:00,69.0,67.0,-100.00,South,185,1.0,-999.0,93,0.00,,,-99.99,0.600000,,2013-03-19 05:12:00,
2013-03-19 01:22:00,69.0,67.0,-100.00,South,185,1.0,-999.0,93,0.00,,,-99.99,0.600000,,2013-03-19 05:22:00,
2013-03-19 01:32:00,69.0,67.0,-100.00,SSE,154,2.0,-999.0,94,0.00,,,-99.99,0.600000,,2013-03-19 05:32:00,
2013-03-19 01:43:00,69.0,67.0,-100.00,West,274,1.0,-999.0,94,0.00,,,-99.99,0.600000,,2013-03-19 05:43:00,
2013-03-19 01:52:00,69.0,67.0,-100.00,West,274,1.0,-999.0,94,0.00,,,-99.99,0.600000,,2013-03-19 05:52:00,
2013-03-19 02:02:00,69.0,67.0,-100.00,WNW,294,3.0,-999.0,93,0.00,,,-99.99,0.600000,,2013-03-19 06:02:00,
2013-03-19 02:12:00,69.0,68.0,-100.00,WNW,284,3.0,-999.0,94,0.00,,,-99.99,0.600000,,2013-03-19 06:12:00,
2013-03-19 02:22:00,69.0,68.0,-100.00,WNW,284,3.0,-999.0,94,0.00,,,-99.99,0.600000,,2013-03-19 06:22:00,
2013-03-19 02:32:00,69.0,68.0,-100.00,West,278,4.0,-999.0,94,0.00,,,-99.99,0.600000,,2013-03-19 06:32:00,
2013-03-19 02:42:00,69.0,68.0,-100.00,WSW,255,3.0,-999.0,94,0.00,,,-99.99,0.600000,,2013-03-19 06:42:00,
2013-03-19 02:52:00,69.0,68.0,-100.00,WSW,255,3.0,-999.0,94,0.00,,,-99.99,0.600000,,2013-03-19 06:52:00,
2013-03-19 03:02:00,69.0,68.0,-100.00,WSW,242,3.0,-999.0,94,0.00,,,-99.99,0.600000,,2013-03-19 07:02:00,
2013-03-19 03:12:00,69.0,68.0,-100.00,West,276,4.0,-999.0,94,0.00,,,-99.99,0.600000,,2013-03-19 07:12:00,
2013-03-19 03:22:00,69.0,68.0,-100.00,West,276,4.0,-999.0,94,0.00,,,-99.99,0.600000,,2013-03-19 07:22:00,
2013-03-19 03:32:00,70.0,68.0,-100.00,WSW,243,4.0,-999.0,94,0.03,,,-99.99,0.600000,,2013-03-19 07:32:00,
2013-03-19 03:42:00,70.0,68.0,-100.00,SW,232,5.0,-999.0,95,0.00,,,-99.99,0.600000,,2013-03-19 07:42:00,
2013-03-19 03:53:00,70.0,68.0,-100.00,SW,232,5.0,-999.0,95,0.00,,,-99.99,0.600000,,2013-03-19 07:53:00,
2013-03-19 04:03:00,70.0,69.0,-100.00,SW,220,5.0,-999.0,95,0.03,,,-99.99,0.600000,,2013-03-19 08:03:00,
2013-03-19 04:12:00,71.0,69.0,-100.00,SW,220,5.0,-999.0,95,0.00,,,-99.99,0.600000,,2013-03-19 08:12:00,
2013-03-19 04:22:00,71.0,69.0,-100.00,SW,220,5.0,-999.0,95,0.00,,,-99.99,0.600000,,2013-03-19 08:22:00,
2013-03-19 04:32:00,71.0,70.0,-100.00,SSW,205,6.0,-999.0,95,0.03,,,-99.99,0.600000,,2013-03-19 08:32:00,
2013-03-19 04:42:00,71.0,69.0,-100.00,SSW,193,7.0,-999.0,94,0.00,,,-99.99,0.600000,,2013-03-19 08:42:00,
2013-03-19 04:52:00,71.0,69.0,-100.00,SSW,193,7.0,-999.0,94,0.00,,,-99.99,0.600000,,2013-03-19 08:52:00,
2013-03-19 05:02:00,71.0,70.0,-100.00,South,189,10.0,-999.0,95,0.00,,,-99.99,0.600000,,2013-03-19 09:02:00,
2013-03-19 05:12:00,72.0,70.0,-100.00,SSW,196,11.0,-999.0,95,0.00,,,-99.99,0.600000,,2013-03-19 09:12:00,
2013-03-19 05:22:00,72.0,70.0,-100.00,SSW,196,11.0,-999.0,95,0.00,,,-99.99,0.600000,,2013-03-19 09:22:00,
2013-03-19 05:32:00,72.0,70.0,-100.00,SSW,208,10.0,-999.0,95,0.00,,,-99.99,0.600000,,2013-03-19 09:32:00,
2013-03-19 05:43:00,72.0,71.0,-100.00,SW,214,7.0,-999.0,95,0.00,,,-99.99,0.500000,,2013-03-19 09:43:00,
2013-03-19 05:53:00,72.0,71.0,-100.00,SW,214,7.0,-999.0,95,0.00,,,-99.99,0.500000,,2013-03-19 09:53:00,
2013-03-19 06:03:00,72.0,70.0,-100.00,SSW,210,6.0,-999.0,95,0.00,,,-99.99,0.500000,,2013-03-19 10:03:00,
2013-03-19 06:13:00,72.0,70.0,-100.00,WSW,243,6.0,-999.0,94,0.00,,,-99.99,0.500000,,2013-03-19 10:13:00,
2013-03-19 06:23:00,72.0,70.0,-100.00,WSW,243,6.0,-999.0,94,0.00,,,-99.99,0.500000,,2013-03-19 10:23:00,
2013-03-19 06:32:00,72.0,70.0,-100.00,NW,318,6.0,-999.0,94,0.00,,,-99.99,0.400000,,2013-03-19 10:32:00,
2013-03-19 06:42:00,72.0,70.0,-100.00,NW,311,6.0,-999.0,93,0.00,,,-99.99,0.300000,,2013-03-19 10:42:00,
2013-03-19 06:53:00,72.0,70.0,-100.00,NW,311,6.0,-999.0,93,0.00,,,-99.99,0.300000,,2013-03-19 10:53:00,
2013-03-19 07:02:00,72.0,69.0,-100.00,WNW,294,7.0,-999.0,92,0.00,,,-99.99,0.200000,,2013-03-19 11:02:00,
2013-03-19 07:12:00,71.0,69.0,-100.00,West,268,6.0,-999.0,91,0.00,,,-99.99,0.200000,,2013-03-19 11:12:00,
2013-03-19 07:22:00,71.0,69.0,-100.00,West,268,6.0,-999.0,91,0.00,,,-99.99,0.200000,,2013-03-19 11:22:00,
2013-03-19 07:33:00,71.0,68.0,-100.00,WNW,292,5.0,-999.0,91,0.00,,,-99.99,0.200000,,2013-03-19 11:33:00,
2013-03-19 07:43:00,71.0,68.0,-100.00,WNW,302,5.0,-999.0,91,0.00,,,-99.99,1.100000,,2013-03-19 11:43:00,
2013-03-19 07:53:00,71.0,68.0,-100.00,WNW,302,5.0,-999.0,91,0.00,,,-99.99,1.100000,,2013-03-19 11:53:00,
2013-03-19 08:02:00,71.0,68.0,-100.00,North,358,2.0,-999.0,91,0.00,,,-99.99,7.200000,,2013-03-19 12:02:00,
2013-03-19 08:12:00,71.0,68.0,-100.00,WNW,301,5.0,-999.0,91,0.00,,,-99.99,10.700000,,2013-03-19 12:12:00,
2013-03-19 08:22:00,71.0,68.0,-100.00,WNW,301,5.0,-999.0,91,0.00,,,-99.99,10.700000,,2013-03-19 12:22:00,
2013-03-19 08:33:00,71.0,68.0,-100.00,WNW,301,5.0,-999.0,92,0.00,,,-99.99,32.200001,,2013-03-19 12:33:00,
2013-03-19 08:42:00,71.0,68.0,-100.00,WNW,296,6.0,-999.0,91,0.00,,,-99.99,92.900002,,2013-03-19 12:42:00,
2013-03-19 08:52:00,71.0,68.0,-100.00,WNW,296,6.0,-999.0,91,0.00,,,-99.99,92.900002,,2013-03-19 12:52:00,
2013-03-19 09:02:00,71.0,68.0,-100.00,WNW,301,6.0,-999.0,91,0.00,,,-99.99,93.800003,,2013-03-19 13:02:00,
2013-03-19 09:12:00,71.0,68.0,-100.00,NW,312,5.0,-999.0,90,0.00,,,-99.99,38.200001,,2013-03-19 13:12:00,
2013-03-19 09:22:00,71.0,68.0,-100.00,NW,312,5.0,-999.0,90,0.00,,,-99.99,38.200001,,2013-03-19 13:22:00,
2013-03-19 09:33:00,71.0,68.0,-100.00,WNW,289,4.0,-999.0,90,0.00,,,-99.99,38.400002,,2013-03-19 13:33:00,
2013-03-19 09:42:00,71.0,68.0,-100.00,West,265,3.0,-999.0,89,0.00,,,-99.99,84.500000,,2013-03-19 13:42:00,
2013-03-19 09:53:00,71.0,68.0,-100.00,West,265,3.0,-999.0,89,0.00,,,-99.99,84.500000,,2013-03-19 13:53:00,
2013-03-19 10:02:00,72.0,68.0,-100.00,NW,312,4.0,-999.0,89,0.00,,,-99.99,90.099998,,2013-03-19 14:02:00,
2013-03-19 10:12:00,72.0,68.0,-100.00,NW,312,3.0,-999.0,89,0.00,,,-99.99,122.099998,,2013-03-19 14:12:00,
2013-03-19 10:22:00,72.0,68.0,-100.00,NW,312,3.0,-999.0,89,0.00,,,-99.99,122.099998,,2013-03-19 14:22:00,
2013-03-19 10:32:00,72.0,69.0,-100.00,NNW,333,3.0,-999.0,89,0.00,,,-99.99,99.500000,,2013-03-19 14:32:00,
2013-03-19 10:42:00,72.0,68.0,-100.00,West,264,3.0,-999.0,89,0.00,,,-99.99,97.300003,,2013-03-19 14:42:00,
2013-03-19 10:52:00,72.0,68.0,-100.00,West,264,3.0,-999.0,89,0.00,,,-99.99,97.300003,,2013-03-19 14:52:00,
2013-03-19 11:02:00,72.0,68.0,-100.00,NW,306,6.0,-999.0,88,0.00,,,-99.99,82.500000,,2013-03-19 15:02:00,
2013-03-19 11:12:00,72.0,68.0,-100.00,NNW,331,4.0,-999.0,88,0.00,,,-99.99,120.300003,,2013-03-19 15:12:00,
2013-03-19 11:22:00,72.0,68.0,-100.00,NNW,331,4.0,-999.0,88,0.00,,,-99.99,120.300003,,2013-03-19 15:22:00,
2013-03-19 11:34:00,72.0,68.0,-100.00,NNW,338,2.0,-999.0,88,0.00,,,-99.99,240.000000,,2013-03-19 15:34:00,
2013-03-19 11:44:00,73.0,69.0,-100.00,North,1,4.0,-999.0,87,0.00,,,-99.99,347.899994,,2013-03-19 15:44:00,
2013-03-19 11:53:00,73.0,69.0,-100.00,North,1,4.0,-999.0,87,0.00,,,-99.99,347.899994,,2013-03-19 15:53:00,
2013-03-19 12:04:00,74.0,69.0,-100.00,NNW,344,5.0,-999.0,85,0.00,,,-99.99,357.000000,,2013-03-19 16:04:00,
2013-03-19 12:13:00,74.0,68.0,-100.00,NNW,346,3.0,-999.0,83,0.00,,,-99.99,328.100006,,2013-03-19 16:13:00,
2013-03-19 12:24:00,74.0,68.0,-100.00,NNW,346,3.0,-999.0,83,0.00,,,-99.99,328.100006,,2013-03-19 16:24:00,
2013-03-19 12:34:00,75.0,68.0,-100.00,NW,323,4.0,-999.0,81,0.00,,,-99.99,416.799988,,2013-03-19 16:34:00,
2013-03-19 12:44:00,75.0,68.0,-100.00,NW,316,5.0,-999.0,78,0.00,,,-99.99,600.299988,,2013-03-19 16:44:00,
2013-03-19 12:54:00,75.0,68.0,-100.00,NW,316,5.0,-999.0,78,0.00,,,-99.99,600.299988,,2013-03-19 16:54:00,
2013-03-19 13:03:00,76.0,69.0,-100.00,WNW,294,5.0,-999.0,76,0.00,,,-99.99,762.000000,,2013-03-19 17:03:00,
2013-03-19 13:14:00,77.0,68.0,-100.00,WNW,302,6.0,-999.0,73,0.00,,,-99.99,513.299988,,2013-03-19 17:14:00,
2013-03-19 13:23:00,77.0,68.0,-100.00,WNW,302,6.0,-999.0,73,0.00,,,-99.99,513.299988,,2013-03-19 17:23:00,
2013-03-19 13:34:00,78.0,68.0,-100.00,NW,319,5.0,-999.0,71,0.00,,,-99.99,695.599976,,2013-03-19 17:34:00,
2013-03-19 13:44:00,78.0,67.0,-100.00,WNW,295,6.0,-999.0,70,0.00,,,-99.99,660.900024,,2013-03-19 17:44:00,
2013-03-19 13:53:00,78.0,67.0,-100.00,WNW,295,6.0,-999.0,70,0.00,,,-99.99,660.900024,,2013-03-19 17:53:00,
2013-03-19 14:03:00,78.0,67.0,-100.00,WNW,292,6.0,-999.0,68,0.00,,,-99.99,556.400024,,2013-03-19 18:03:00,
2013-03-19 14:13:00,78.0,66.0,-100.00,NNW,335,4.0,-999.0,65,0.00,,,-99.99,371.799988,,2013-03-19 18:13:00,
2013-03-19 14:23:00,78.0,66.0,-100.00,NNW,335,4.0,-999.0,65,0.00,,,-99.99,371.799988,,2013-03-19 18:23:00,
2013-03-19 14:33:00,78.0,66.0,-100.00,NNW,331,5.0,-999.0,65,0.00,,,-99.99,421.799988,,2013-03-19 18:33:00,
2013-03-19 14:43:00,78.0,66.0,-100.00,NW,307,3.0,-999.0,65,0.00,,,-99.99,416.399994,,2013-03-19 18:43:00,
2013-03-19 14:53:00,78.0,66.0,-100.00,NW,307,3.0,-999.0,65,0.00,,,-99.99,416.399994,,2013-03-19 18:53:00,
2013-03-19 15:02:00,79.0,66.0,-100.00,NNW,327,3.0,-999.0,65,0.00,,,-99.99,399.899994,,2013-03-19 19:02:00,
2013-03-19 15:12:00,79.0,66.0,-100.00,NW,322,4.0,-999.0,64,0.00,,,-99.99,425.899994,,2013-03-19 19:12:00,
2013-03-19 15:22:00,79.0,66.0,-100.00,NW,322,4.0,-999.0,64,0.00,,,-99.99,425.899994,,2013-03-19 19:22:00,
2013-03-19 15:33:00,79.0,66.0,-100.00,NW,306,2.0,-999.0,64,0.00,,,-99.99,357.299988,,2013-03-19 19:33:00,
2013-03-19 15:43:00,78.0,66.0,-100.00,NNW,327,4.0,-999.0,66,0.00,,,-99.99,386.799988,,2013-03-19 19:43:00,
2013-03-19 15:53:00,78.0,66.0,-100.00,NNW,327,4.0,-999.0,66,0.00,,,-99.99,386.799988,,2013-03-19 19:53:00,
2013-03-19 16:03:00,78.0,66.0,-100.00,NNW,347,4.0,-999.0,66,0.00,,,-99.99,309.000000,,2013-03-19 20:03:00,
2013-03-19 16:12:00,78.0,66.0,-100.00,NNW,342,4.0,-999.0,67,0.00,,,-99.99,323.799988,,2013-03-19 20:12:00,
2013-03-19 16:22:00,78.0,66.0,-100.00,NNW,342,4.0,-999.0,67,0.00,,,-99.99,323.799988,,2013-03-19 20:22:00,
2013-03-19 16:32:00,79.0,66.0,-100.00,NNW,333,4.0,-999.0,65,0.00,,,-99.99,463.299988,,2013-03-19 20:32:00,
2013-03-19 16:43:00,79.0,66.0,-100.00,NNW,334,3.0,-999.0,65,0.00,,,-99.99,254.800003,,2013-03-19 20:43:00,
2013-03-19 16:53:00,79.0,66.0,-100.00,NNW,334,3.0,-999.0,65,0.00,,,-99.99,254.800003,,2013-03-19 20:53:00,
2013-03-19 17:02:00,79.0,66.0,-100.00,West,259,4.0,-999.0,66,0.00,,,-99.99,287.299988,,2013-03-19 21:02:00,
2013-03-19 17:12:00,79.0,66.0,-100.00,WSW,238,2.0,-999.0,64,0.00,,,-99.99,210.000000,,2013-03-19 21:12:00,
2013-03-19 17:23:00,79.0,66.0,-100.00,WSW,238,2.0,-999.0,64,0.00,,,-99.99,210.000000,,2013-03-19 21:23:00,
2013-03-19 17:34:00,78.0,66.0,-100.00,West,267,2.0,-999.0,64,0.00,,,-99.99,211.300003,,2013-03-19 21:34:00,
2013-03-19 17:43:00,78.0,66.0,-100.00,WSW,249,4.0,-999.0,66,0.00,,,-99.99,183.000000,,2013-03-19 21:43:00,
2013-03-19 17:53:00,78.0,66.0,-100.00,WSW,249,4.0,-999.0,66,0.00,,,-99.99,183.000000,,2013-03-19 21:53:00,
2013-03-19 18:03:00,79.0,67.0,-100.00,WSW,244,3.0,-999.0,66,0.00,,,-99.99,344.600006,,2013-03-19 22:03:00,
2013-03-19 18:13:00,79.0,66.0,-100.00,SW,217,4.0,-999.0,63,0.00,,,-99.99,291.600006,,2013-03-19 22:13:00,
2013-03-19 18:23:00,79.0,66.0,-100.00,SW,217,4.0,-999.0,63,0.00,,,-99.99,291.600006,,2013-03-19 22:23:00,
2013-03-19 18:33:00,79.0,66.0,-100.00,SW,215,3.0,-999.0,63,0.00,,,-99.99,204.399994,,2013-03-19 22:33:00,
2013-03-19 18:43:00,79.0,66.0,-100.00,WSW,247,3.0,-999.0,65,0.00,,,-99.99,203.800003,,2013-03-19 22:43:00,
2013-03-19 18:53:00,79.0,66.0,-100.00,WSW,247,3.0,-999.0,65,0.00,,,-99.99,203.800003,,2013-03-19 22:53:00,
2013-03-19 19:03:00,80.0,67.0,-100.00,NNE,12,2.0,-999.0,65,0.00,,,-99.99,169.100006,,2013-03-19 23:03:00,
2013-03-19 19:12:00,79.0,67.0,-100.00,North,0,2.0,-999.0,68,0.00,,,-99.99,107.800003,,2013-03-19 23:12:00,
2013-03-19 19:22:00,79.0,67.0,-100.00,North,0,2.0,-999.0,68,0.00,,,-99.99,107.800003,,2013-03-19 23:22:00,
2013-03-19 19:32:00,77.0,68.0,-100.00,North,4,3.0,-999.0,73,0.00,,,-99.99,51.400002,,2013-03-19 23:32:00,
2013-03-19 19:43:00,76.0,68.0,-100.00,ENE,78,3.0,-999.0,76,0.00,,,-99.99,11.800000,,2013-03-19 23:43:00,
2013-03-19 19:53:00,76.0,68.0,-100.00,ENE,78,3.0,-999.0,76,0.00,,,-99.99,11.800000,,2013-03-19 23:53:00,
2013-03-19 20:03:00,74.0,68.0,-100.00,East,95,4.0,-999.0,80,0.00,,,-99.99,1.500000,,2013-03-20 00:03:00,
2013-03-19 20:13:00,73.0,68.0,-100.00,ESE,117,3.0,-999.0,82,0.00,,,-99.99,0.000000,,2013-03-20 00:13:00,
2013-03-19 20:22:00,73.0,68.0,-100.00,ESE,117,3.0,-999.0,82,0.00,,,-99.99,0.000000,,2013-03-20 00:22:00,
2013-03-19 20:33:00,72.0,67.0,-100.00,East,84,3.0,-999.0,83,0.00,,,-99.99,0.000000,,2013-03-20 00:33:00,
2013-03-19 20:42:00,72.0,68.0,-100.00,East,98,3.0,-999.0,85,0.00,,,-99.99,0.000000,,2013-03-20 00:42:00,
2013-03-19 20:52:00,72.0,68.0,-100.00,East,98,3.0,-999.0,85,0.00,,,-99.99,0.000000,,2013-03-20 00:52:00,
2013-03-19 21:03:00,72.0,67.0,-100.00,East,88,3.0,-999.0,86,0.00,,,-99.99,0.000000,,2013-03-20 01:03:00,
2013-03-19 21:12:00,72.0,68.0,-100.00,ESE,105,3.0,-999.0,87,0.00,,,-99.99,0.000000,,2013-03-20 01:12:00,
2013-03-19 21:22:00,72.0,68.0,-100.00,ESE,105,3.0,-999.0,87,0.00,,,-99.99,0.000000,,2013-03-20 01:22:00,
2013-03-19 21:32:00,71.0,67.0,-100.00,East,100,2.0,-999.0,87,0.00,,,-99.99,0.000000,,2013-03-20 01:32:00,
2013-03-19 21:42:00,71.0,67.0,-100.00,SE,124,2.0,-999.0,88,0.00,,,-99.99,0.000000,,2013-03-20 01:42:00,
2013-03-19 21:53:00,71.0,67.0,-100.00,SE,124,2.0,-999.0,88,0.00,,,-99.99,0.000000,,2013-03-20 01:53:00,
2013-03-19 22:02:00,71.0,67.0,-100.00,ESE,116,2.0,-999.0,89,0.00,,,-99.99,0.000000,,2013-03-20 02:02:00,
2013-03-19 22:12:00,70.0,67.0,-100.00,East,92,2.0,-999.0,89,0.00,,,-99.99,0.000000,,2013-03-20 02:12:00,
2013-03-19 22:22:00,70.0,67.0,-100.00,East,92,2.0,-999.0,89,0.00,,,-99.99,0.000000,,2013-03-20 02:22:00,
2013-03-19 22:32:00,70.0,67.0,-100.00,ENE,62,1.0,-999.0,90,0.00,,,-99.99,0.000000,,2013-03-20 02:32:00,
2013-03-19 22:42:00,69.0,66.0,-100.00,NE,42,1.0,-999.0,91,0.00,,,-99.99,0.000000,,2013-03-20 02:42:00,
2013-03-19 22:53:00,69.0,66.0,-100.00,NE,42,1.0,-999.0,91,0.00,,,-99.99,0.000000,,2013-03-20 02:53:00,
2013-03-19 23:02:00,69.0,66.0,-100.00,NE,42,1.0,-999.0,91,0.00,,,-99.99,0.000000,,2013-03-20 03:02:00,
2013-03-19 23:12:00,69.0,66.0,-100.00,ENE,74,1.0,-999.0,92,0.00,,,-99.99,0.000000,,2013-03-20 03:12:00,
2013-03-19 23:22:00,69.0,66.0,-100.00,ENE,74,1.0,-999.0,92,0.00,,,-99.99,0.000000,,2013-03-20 03:22:00,
2013-03-19 23:34:00,69.0,66.0,-100.00,SE,133,1.0,-999.0,92,0.00,,,-99.99,0.100000,,2013-03-20 03:34:00,
2013-03-19 23:42:00,68.0,66.0,-100.00,SW,222,1.0,-999.0,92,0.00,,,-99.99,0.200000,,2013-03-20 03:42:00,
2013-03-19 23:53:00,68.0,66.0,-100.00,SW,222,1.0,-999.0,92,0.00,,,-99.99,0.200000,,2013-03-20 03:53:00,